Worst METAR reports worldwide for Flight Simulation

Snow

Station Wind Gust Vis(SM) Temp/Dew Baro
SCCI 25 4.97 3/1 29.20
SCCI 111900Z 29025KT 8000 -SHSNRA FEW015 BKN020 03/01 Q0989 NOSIG